createdAt,value
2018-10-21T00:00:48.517Z,8.90
2018-10-21T00:03:17.284Z,9.17
2018-10-21T00:05:45.944Z,9.17
2018-10-21T00:08:14.645Z,8.90
2018-10-21T00:10:43.607Z,8.73
2018-10-21T00:13:12.351Z,9.80
2018-10-21T00:15:41.171Z,9.23
2018-10-21T00:18:09.811Z,9.13
2018-10-21T00:20:38.528Z,9.60
2018-10-21T00:23:07.354Z,9.67
2018-10-21T00:25:36.076Z,9.47
2018-10-21T00:28:04.860Z,9.43
2018-10-21T00:30:33.608Z,9.27
2018-10-21T00:33:02.312Z,8.70
2018-10-21T00:35:31.028Z,9.17
2018-10-21T00:37:59.767Z,8.23
2018-10-21T00:40:28.518Z,8.70
2018-10-21T00:42:57.200Z,8.70
2018-10-21T00:45:25.901Z,8.40
2018-10-21T00:47:54.602Z,8.23
2018-10-21T00:50:23.311Z,8.80
2018-10-21T00:52:52.014Z,8.10
2018-10-21T00:55:20.722Z,8.70
2018-10-21T00:57:49.419Z,7.80
2018-10-21T01:00:18.194Z,8.17
2018-10-21T01:02:46.899Z,8.97
2018-10-21T01:05:15.656Z,8.50
2018-10-21T01:07:44.370Z,7.93
2018-10-21T01:10:13.092Z,8.60
2018-10-21T01:12:42.137Z,8.60
2018-10-21T01:15:12.186Z,8.37
2018-10-21T01:17:40.893Z,7.63
2018-10-21T01:20:11.512Z,8.00
2018-10-21T01:22:40.650Z,8.10
2018-10-21T01:25:09.881Z,8.30
2018-10-21T01:27:39.531Z,8.33
2018-10-21T01:30:09.389Z,7.77
2018-10-21T01:32:38.149Z,8.00
2018-10-21T01:35:07.763Z,7.73
2018-10-21T01:37:36.551Z,7.83
2018-10-21T01:40:48.172Z,7.73
2018-10-21T01:43:18.830Z,7.40
2018-10-21T01:45:47.583Z,8.23
2018-10-21T01:48:17.447Z,7.67
2018-10-21T01:50:46.256Z,8.07
2018-10-21T01:53:15.882Z,8.10
2018-10-21T01:55:44.653Z,7.50
2018-10-21T01:58:13.369Z,8.37
2018-10-21T02:00:42.522Z,8.03
2018-10-21T02:03:11.280Z,7.37
2018-10-21T02:05:40.557Z,7.40
2018-10-21T02:08:09.275Z,6.93
2018-10-21T02:10:38.052Z,7.03
2018-10-21T02:13:06.842Z,7.37
2018-10-21T02:15:35.546Z,8.07
2018-10-21T02:18:04.364Z,7.57
2018-10-21T02:20:33.079Z,7.30
2018-10-21T02:23:01.846Z,7.23
2018-10-21T02:25:30.544Z,7.63
2018-10-21T02:27:59.258Z,8.27
2018-10-21T02:30:28.952Z,7.10
2018-10-21T02:32:58.356Z,7.07
2018-10-21T02:35:27.013Z,7.70
2018-10-21T02:37:56.204Z,6.83
2018-10-21T02:41:36.903Z,7.83
2018-10-21T02:44:06.597Z,7.07
2018-10-21T02:46:35.796Z,7.40
2018-10-21T02:49:05.174Z,8.33
2018-10-21T02:51:33.869Z,8.50
2018-10-21T02:54:02.573Z,8.93
2018-10-21T02:56:31.282Z,9.27
2018-10-21T02:59:00.025Z,9.43
2018-10-21T03:01:28.727Z,10.07
2018-10-21T03:03:57.440Z,9.33
2018-10-21T03:06:26.169Z,8.77
2018-10-21T03:08:54.881Z,9.00
2018-10-21T03:11:23.608Z,8.70
2018-10-21T03:13:52.425Z,8.03
2018-10-21T03:16:21.162Z,8.07
2018-10-21T03:18:49.864Z,8.07
2018-10-21T03:21:18.627Z,7.03
2018-10-21T03:23:47.278Z,7.20
2018-10-21T03:26:15.972Z,6.97
2018-10-21T03:28:44.660Z,7.37
2018-10-21T03:31:13.348Z,6.80
2018-10-21T03:33:42.180Z,7.20
2018-10-21T03:36:10.818Z,7.57
2018-10-21T03:38:39.577Z,7.07
2018-10-21T03:41:08.284Z,6.73
2018-10-21T03:43:37.007Z,7.00
2018-10-21T03:46:05.763Z,7.83
2018-10-21T03:48:34.491Z,7.30
2018-10-21T03:51:03.268Z,7.27
2018-10-21T03:53:31.976Z,7.47
2018-10-21T03:56:00.688Z,7.80
2018-10-21T03:58:29.413Z,7.40
2018-10-21T04:00:58.149Z,6.97
2018-10-21T04:03:26.828Z,7.57
2018-10-21T04:05:55.544Z,7.20
2018-10-21T04:08:24.248Z,8.23
2018-10-21T04:10:52.930Z,7.63
2018-10-21T04:13:21.636Z,7.50
2018-10-21T04:15:50.352Z,7.63
2018-10-21T04:18:19.079Z,7.47
2018-10-21T04:20:47.767Z,7.97
2018-10-21T04:23:16.457Z,8.00
2018-10-21T04:25:45.173Z,7.47
2018-10-21T04:28:14.008Z,7.20
2018-10-21T04:30:43.314Z,7.93
2018-10-21T04:33:18.232Z,7.07
2018-10-21T04:35:46.952Z,7.43
2018-10-21T04:38:39.475Z,7.03
2018-10-21T04:41:08.205Z,7.87
2018-10-21T04:43:36.885Z,7.37
2018-10-21T04:46:05.666Z,7.43
2018-10-21T04:48:34.370Z,7.83
2018-10-21T04:51:03.082Z,7.10
2018-10-21T04:53:31.775Z,7.70
2018-10-21T04:56:00.483Z,7.70
2018-10-21T04:58:29.194Z,8.10
2018-10-21T05:00:57.906Z,8.23
2018-10-21T05:03:26.619Z,6.83
2018-10-21T05:05:55.320Z,8.70
2018-10-21T05:08:24.819Z,8.87
2018-10-21T05:10:53.549Z,8.60
2018-10-21T05:13:22.276Z,8.30
2018-10-21T05:15:51.095Z,8.40
2018-10-21T05:18:19.747Z,7.73
2018-10-21T05:20:48.478Z,7.80
2018-10-21T05:23:17.198Z,7.73
2018-10-21T05:25:45.898Z,8.00
2018-10-21T05:28:14.638Z,7.60
2018-10-21T05:30:43.318Z,7.53
2018-10-21T05:33:12.036Z,7.50
2018-10-21T05:35:41.331Z,7.77
2018-10-21T05:38:10.019Z,7.70
2018-10-21T05:40:38.757Z,7.50
2018-10-21T05:43:07.504Z,7.83
2018-10-21T05:45:36.259Z,7.53
2018-10-21T05:48:05.168Z,7.17
2018-10-21T05:50:33.905Z,7.27
2018-10-21T05:53:02.667Z,6.83
2018-10-21T05:55:31.392Z,7.17
2018-10-21T05:58:00.195Z,7.83
2018-10-21T06:00:28.866Z,7.33
2018-10-21T06:02:57.685Z,7.60
2018-10-21T06:05:43.193Z,8.20
2018-10-21T06:08:11.921Z,6.77
2018-10-21T06:10:41.036Z,7.70
2018-10-21T06:13:09.983Z,7.60
2018-10-21T06:15:38.786Z,7.57
2018-10-21T06:18:09.924Z,7.30
2018-10-21T06:20:43.021Z,7.23
2018-10-21T06:23:11.781Z,8.40
2018-10-21T06:25:40.475Z,8.00
2018-10-21T06:28:09.330Z,7.90
2018-10-21T06:30:38.091Z,8.60
2018-10-21T06:33:06.877Z,8.37
2018-10-21T06:35:35.566Z,8.40
2018-10-21T06:38:04.330Z,8.70
2018-10-21T06:40:33.075Z,8.63
2018-10-21T06:43:01.968Z,9.00
2018-10-21T06:45:30.744Z,8.17
2018-10-21T06:47:59.448Z,12.03
2018-10-21T06:50:28.177Z,10.53
2018-10-21T06:52:56.927Z,13.07
2018-10-21T06:55:25.678Z,11.17
2018-10-21T06:57:54.387Z,10.47
2018-10-21T07:00:23.092Z,9.93
2018-10-21T07:02:51.809Z,9.67
2018-10-21T07:05:31.404Z,9.27
2018-10-21T07:08:00.121Z,8.60
2018-10-21T07:10:28.958Z,9.00
2018-10-21T07:12:57.693Z,9.27
2018-10-21T07:15:26.449Z,8.73
2018-10-21T07:17:55.198Z,9.97
2018-10-21T07:20:24.012Z,10.10
2018-10-21T07:22:52.724Z,8.90
2018-10-21T07:25:21.421Z,11.43
2018-10-21T07:27:50.222Z,13.13
2018-10-21T07:30:18.922Z,14.17
2018-10-21T07:32:47.627Z,14.20
2018-10-21T07:35:16.363Z,13.47
2018-10-21T07:37:45.664Z,13.50
2018-10-21T07:40:14.474Z,13.40
2018-10-21T07:42:43.302Z,11.67
2018-10-21T07:45:12.083Z,13.20
2018-10-21T07:47:40.826Z,15.10
2018-10-21T07:50:09.549Z,14.80
2018-10-21T07:52:38.262Z,13.40
2018-10-21T07:55:07.141Z,9.37
2018-10-21T07:57:35.783Z,11.30
2018-10-21T08:00:04.601Z,11.37
2018-10-21T08:02:33.304Z,12.53
2018-10-21T08:05:02.049Z,11.53
2018-10-21T08:07:41.635Z,12.87
2018-10-21T08:10:10.384Z,13.57
2018-10-21T08:12:39.094Z,15.30
2018-10-21T08:15:07.866Z,13.60
2018-10-21T08:17:36.572Z,13.43
2018-10-21T08:20:05.711Z,12.53
2018-10-21T08:22:34.573Z,9.93
2018-10-21T08:25:03.335Z,10.07
2018-10-21T08:27:32.113Z,9.53
2018-10-21T08:30:00.853Z,10.70
2018-10-21T08:32:29.564Z,9.70
2018-10-21T08:34:58.559Z,9.80
2018-10-21T08:37:27.306Z,9.67
2018-10-21T08:39:56.161Z,9.13
2018-10-21T08:42:24.933Z,9.10
2018-10-21T08:44:53.707Z,9.60
2018-10-21T08:47:22.446Z,10.23
2018-10-21T08:49:51.336Z,9.80
2018-10-21T08:52:20.109Z,10.43
2018-10-21T08:54:48.877Z,9.60
2018-10-21T08:57:17.653Z,10.40
2018-10-21T08:59:46.386Z,11.30
2018-10-21T09:02:15.206Z,10.87
2018-10-21T09:04:43.981Z,10.53
2018-10-21T09:07:12.783Z,9.50
2018-10-21T09:09:41.492Z,10.27
2018-10-21T09:12:10.321Z,9.63
2018-10-21T09:14:39.068Z,10.27
2018-10-21T09:17:07.859Z,10.70
2018-10-21T09:19:36.651Z,10.77
2018-10-21T09:22:05.423Z,10.80
2018-10-21T09:24:34.208Z,11.03
2018-10-21T09:27:03.000Z,11.30
2018-10-21T09:29:31.749Z,10.53
2018-10-21T09:32:00.471Z,10.43
2018-10-21T09:34:29.175Z,10.90
2018-10-21T09:36:57.954Z,10.90
2018-10-21T09:39:27.260Z,10.67
2018-10-21T09:41:56.038Z,10.87
2018-10-21T09:44:24.768Z,11.90
2018-10-21T09:46:53.503Z,12.53
2018-10-21T09:49:22.215Z,13.27
2018-10-21T09:51:50.960Z,13.80
2018-10-21T09:54:19.663Z,14.50
2018-10-21T09:56:48.405Z,15.43
2018-10-21T09:59:17.110Z,15.37
2018-10-21T10:01:51.052Z,16.03
2018-10-21T10:04:19.828Z,16.70
2018-10-21T10:06:48.601Z,15.93
2018-10-21T10:09:17.364Z,16.83
2018-10-21T10:11:46.093Z,17.93
2018-10-21T10:14:14.837Z,16.43
2018-10-21T10:16:43.590Z,17.33
2018-10-21T10:19:12.447Z,16.40
2018-10-21T10:21:41.102Z,15.23
2018-10-21T10:24:09.858Z,15.70
2018-10-21T10:26:38.601Z,15.27
2018-10-21T10:29:07.333Z,14.33
2018-10-21T10:31:36.068Z,13.67
2018-10-21T10:34:04.958Z,14.33
2018-10-21T10:36:33.609Z,13.87
2018-10-21T10:39:02.402Z,14.30
2018-10-21T10:41:31.126Z,13.53
2018-10-21T10:43:59.848Z,14.03
2018-10-21T10:46:28.599Z,12.97
2018-10-21T10:48:57.377Z,12.53
2018-10-21T10:51:26.107Z,11.10
2018-10-21T10:53:54.825Z,12.97
2018-10-21T10:56:23.750Z,12.37
2018-10-21T10:58:52.481Z,12.07
2018-10-21T11:01:21.209Z,11.57
2018-10-21T11:03:49.961Z,12.40
2018-10-21T11:06:18.699Z,12.53
2018-10-21T11:08:47.431Z,10.87
2018-10-21T11:11:17.024Z,11.50
2018-10-21T11:13:45.812Z,12.63
2018-10-21T11:16:14.644Z,10.03
2018-10-21T11:18:43.276Z,9.57
2018-10-21T11:21:11.995Z,9.87
2018-10-21T11:23:40.689Z,10.73
2018-10-21T11:26:09.399Z,11.73
2018-10-21T11:28:38.144Z,11.07
2018-10-21T11:31:06.934Z,12.07
2018-10-21T11:33:35.625Z,12.07
2018-10-21T11:36:04.420Z,9.30
2018-10-21T11:38:33.197Z,6.83
2018-10-21T11:41:01.913Z,9.07
2018-10-21T11:43:30.662Z,16.97
2018-10-21T11:45:59.368Z,7.80
2018-10-21T11:48:28.078Z,9.70
2018-10-21T11:50:56.783Z,8.30
2018-10-21T11:53:25.517Z,7.50
2018-10-21T11:55:54.237Z,8.40
2018-10-21T11:58:22.928Z,8.40
2018-10-21T12:00:51.717Z,9.17
2018-10-21T12:03:20.488Z,8.60
2018-10-21T12:05:49.206Z,7.90
2018-10-21T12:08:17.960Z,8.73
2018-10-21T12:10:46.680Z,8.83
2018-10-21T12:13:15.475Z,8.37
2018-10-21T12:15:44.157Z,7.10
2018-10-21T12:18:12.856Z,7.80
2018-10-21T12:20:41.597Z,8.50
2018-10-21T12:23:10.389Z,8.00
2018-10-21T12:25:39.114Z,7.70
2018-10-21T12:28:07.900Z,7.57
2018-10-21T12:30:36.557Z,7.40
2018-10-21T12:33:05.325Z,12.23
2018-10-21T12:35:34.037Z,10.33
2018-10-21T12:38:02.788Z,7.90
2018-10-21T12:40:31.489Z,7.00
2018-10-21T12:43:00.208Z,6.17
2018-10-21T12:45:28.976Z,8.03
2018-10-21T12:47:57.662Z,6.83
2018-10-21T12:50:26.389Z,6.40
2018-10-21T12:52:55.119Z,5.67
2018-10-21T12:55:23.850Z,6.80
2018-10-21T12:57:52.670Z,5.30
2018-10-21T13:00:21.365Z,5.37
2018-10-21T13:02:50.081Z,4.90
2018-10-21T13:05:18.763Z,5.40
2018-10-21T13:07:47.483Z,5.13
2018-10-21T13:10:16.251Z,5.07
2018-10-21T13:12:44.974Z,5.00
2018-10-21T13:15:13.716Z,5.23
2018-10-21T13:17:42.418Z,5.07
2018-10-21T13:20:11.109Z,4.83
2018-10-21T13:22:39.828Z,4.50
2018-10-21T13:25:08.642Z,4.83
2018-10-21T13:27:37.296Z,4.30
2018-10-21T13:30:06.906Z,4.03
2018-10-21T13:32:35.649Z,4.57
2018-10-21T13:35:04.500Z,4.50
2018-10-21T13:37:33.241Z,4.57
2018-10-21T13:40:02.137Z,4.13
2018-10-21T13:42:30.903Z,3.53
2018-10-21T13:44:59.584Z,3.70
2018-10-21T13:47:28.296Z,3.90
2018-10-21T13:49:56.989Z,3.53
2018-10-21T13:52:25.719Z,4.00
2018-10-21T13:54:54.433Z,3.90
2018-10-21T13:57:23.128Z,3.40
2018-10-21T13:59:51.808Z,3.80
2018-10-21T14:02:20.505Z,3.50
2018-10-21T14:04:49.208Z,4.20
2018-10-21T14:07:18.045Z,3.67
2018-10-21T14:09:46.623Z,3.53
2018-10-21T14:12:15.369Z,4.20
2018-10-21T14:14:44.122Z,5.07
2018-10-21T14:17:12.845Z,3.67
2018-10-21T14:19:41.568Z,3.70
2018-10-21T14:22:10.319Z,3.53
2018-10-21T14:24:39.328Z,3.37
2018-10-21T14:27:07.983Z,4.53
2018-10-21T14:29:36.753Z,3.10
2018-10-21T14:32:05.556Z,3.63
2018-10-21T14:34:34.282Z,3.70
2018-10-21T14:37:03.027Z,3.23
2018-10-21T14:39:31.750Z,2.90
2018-10-21T14:42:00.500Z,3.10
2018-10-21T14:44:29.204Z,3.17
2018-10-21T14:46:57.920Z,3.60
2018-10-21T14:49:26.601Z,2.90
2018-10-21T14:51:55.313Z,3.10
2018-10-21T14:54:24.043Z,2.77
2018-10-21T14:56:52.787Z,2.50
2018-10-21T14:59:21.572Z,3.10
2018-10-21T15:01:50.270Z,3.03
2018-10-21T15:04:19.022Z,3.07
2018-10-21T15:06:47.926Z,4.03
2018-10-21T15:09:16.707Z,3.00
2018-10-21T15:11:45.413Z,4.20
2018-10-21T15:14:14.184Z,3.60
2018-10-21T15:16:42.881Z,4.20
2018-10-21T15:19:11.771Z,4.20
2018-10-21T15:21:40.526Z,3.60
2018-10-21T15:24:09.318Z,5.67
2018-10-21T15:26:38.194Z,4.23
2018-10-21T15:29:07.190Z,4.50
2018-10-21T15:31:35.970Z,5.03
2018-10-21T15:34:04.864Z,5.20
2018-10-21T15:36:33.565Z,4.13
2018-10-21T15:39:02.347Z,4.20
2018-10-21T15:41:31.155Z,5.77
2018-10-21T15:43:59.906Z,4.30
2018-10-21T15:46:28.664Z,6.37
2018-10-21T15:48:57.478Z,4.10
2018-10-21T15:51:26.204Z,5.73
2018-10-21T15:53:54.968Z,3.90
2018-10-21T15:56:23.696Z,6.67
2018-10-21T15:58:52.434Z,4.23
2018-10-21T16:01:21.140Z,4.73
2018-10-21T16:03:50.083Z,4.20
2018-10-21T16:06:18.783Z,6.57
2018-10-21T16:08:47.600Z,5.80
2018-10-21T16:11:16.358Z,5.10
2018-10-21T16:13:45.172Z,5.50
2018-10-21T16:16:14.215Z,7.03
2018-10-21T16:18:43.124Z,6.30
2018-10-21T16:21:11.928Z,6.90
2018-10-21T16:23:40.888Z,8.87
2018-10-21T16:26:09.720Z,7.57
2018-10-21T16:28:38.396Z,12.63
2018-10-21T16:31:07.304Z,8.60
2018-10-21T16:33:36.046Z,8.40
2018-10-21T16:36:04.825Z,8.97
2018-10-21T16:38:33.686Z,6.67
2018-10-21T16:41:02.396Z,7.40
2018-10-21T16:43:31.095Z,8.10
2018-10-21T16:45:59.843Z,8.77
2018-10-21T16:48:28.588Z,9.63
2018-10-21T16:50:57.405Z,11.10
2018-10-21T16:53:26.144Z,10.93
2018-10-21T16:55:54.777Z,11.90
2018-10-21T16:58:23.487Z,12.50
2018-10-21T17:00:52.317Z,10.83
2018-10-21T17:03:21.124Z,11.83
2018-10-21T17:05:49.840Z,11.00
2018-10-21T17:08:18.572Z,14.47
2018-10-21T17:10:47.400Z,13.00
2018-10-21T17:13:16.169Z,11.20
2018-10-21T17:15:44.928Z,17.70
2018-10-21T17:18:13.677Z,19.80
2018-10-21T17:20:42.460Z,15.60
2018-10-21T17:23:11.190Z,16.73
2018-10-21T17:25:39.936Z,18.07
2018-10-21T17:28:08.784Z,16.97
2018-10-21T17:30:37.516Z,17.10
2018-10-21T17:33:06.233Z,15.30
2018-10-21T17:35:34.967Z,13.27
2018-10-21T17:38:03.738Z,12.73
2018-10-21T17:40:32.500Z,11.30
2018-10-21T17:43:01.257Z,11.27
2018-10-21T17:45:29.912Z,9.93
2018-10-21T17:47:58.693Z,9.23
2018-10-21T17:50:27.424Z,8.07
2018-10-21T17:52:56.211Z,8.30
2018-10-21T17:55:24.926Z,7.60
2018-10-21T17:57:53.673Z,8.40
2018-10-21T18:00:22.484Z,7.90
2018-10-21T18:02:51.213Z,7.47
2018-10-21T18:05:20.020Z,6.53
2018-10-21T18:07:48.724Z,5.27
2018-10-21T18:10:17.592Z,4.90
2018-10-21T18:12:46.238Z,4.13
2018-10-21T18:15:14.945Z,4.43
2018-10-21T18:17:43.840Z,4.23
2018-10-21T18:20:13.429Z,3.10
2018-10-21T18:22:42.182Z,2.40
2018-10-21T18:25:11.177Z,1.73
2018-10-21T18:27:40.326Z,1.83
2018-10-21T18:30:10.348Z,1.97
2018-10-21T18:32:39.076Z,1.93
2018-10-21T18:35:09.214Z,1.97
2018-10-21T18:37:38.008Z,1.80
2018-10-21T18:40:07.714Z,1.70
2018-10-21T18:42:36.489Z,1.40
2018-10-21T18:45:05.619Z,1.20
2018-10-21T18:47:34.466Z,1.20
2018-10-21T18:50:03.136Z,1.40
2018-10-21T18:52:31.895Z,1.20
2018-10-21T18:55:00.609Z,1.67
2018-10-21T18:57:29.316Z,1.43
2018-10-21T18:59:58.059Z,1.37
2018-10-21T19:02:26.764Z,2.03
2018-10-21T19:04:55.465Z,1.80
2018-10-21T19:07:24.168Z,1.80
2018-10-21T19:09:52.857Z,5.70
2018-10-21T19:12:21.584Z,2.70
2018-10-21T19:14:50.285Z,2.47
2018-10-21T19:17:18.948Z,2.87
2018-10-21T19:19:47.687Z,3.00
2018-10-21T19:22:16.391Z,2.03
2018-10-21T19:24:45.068Z,1.87
2018-10-21T19:27:13.887Z,2.27
2018-10-21T19:29:42.496Z,2.47
2018-10-21T19:32:11.165Z,1.90
2018-10-21T19:34:39.855Z,1.73
2018-10-21T19:37:08.646Z,1.90
2018-10-21T19:39:37.346Z,2.00
2018-10-21T19:42:06.104Z,1.80
2018-10-21T19:44:34.833Z,1.97
2018-10-21T19:47:03.596Z,2.40
2018-10-21T19:49:32.309Z,4.07
2018-10-21T19:52:01.020Z,2.50
2018-10-21T19:54:29.708Z,2.33
2018-10-21T19:56:58.448Z,2.20
2018-10-21T19:59:27.247Z,2.53
2018-10-21T20:01:55.965Z,1.90
2018-10-21T20:04:24.752Z,1.63
2018-10-21T20:06:53.638Z,1.90
2018-10-21T20:09:22.439Z,1.53
2018-10-21T20:11:51.246Z,2.40
2018-10-21T20:14:20.199Z,2.33
2018-10-21T20:16:49.007Z,1.60
2018-10-21T20:19:17.952Z,1.37
2018-10-21T20:21:46.687Z,1.57
2018-10-21T20:24:15.473Z,1.97
2018-10-21T20:26:44.192Z,2.53
2018-10-21T20:29:13.657Z,2.50
2018-10-21T20:31:42.596Z,1.20
2018-10-21T20:34:11.364Z,1.43
2018-10-21T20:36:40.061Z,1.70
2018-10-21T20:39:10.054Z,1.60
2018-10-21T20:41:39.476Z,1.63
2018-10-21T20:44:08.911Z,1.60
2018-10-21T20:46:38.504Z,1.40
2018-10-21T20:49:07.580Z,1.60
2018-10-21T20:51:36.422Z,1.90
2018-10-21T20:54:05.531Z,1.50
2018-10-21T20:56:34.309Z,2.07
2018-10-21T20:59:03.188Z,1.33
2018-10-21T21:01:32.208Z,1.93
2018-10-21T21:04:01.228Z,1.73
2018-10-21T21:06:29.944Z,2.00
2018-10-21T21:08:59.736Z,2.00
2018-10-21T21:11:29.551Z,1.60
2018-10-21T21:13:58.272Z,1.40
2018-10-21T21:16:27.163Z,1.67
2018-10-21T21:18:55.841Z,1.97
2018-10-21T21:21:25.216Z,2.03
2018-10-21T21:23:53.976Z,1.90
2018-10-21T21:26:22.633Z,1.60
2018-10-21T21:28:51.310Z,2.00
2018-10-21T21:31:20.068Z,1.43
2018-10-21T21:33:48.801Z,2.00
2018-10-21T21:36:17.571Z,1.90
2018-10-21T21:38:46.235Z,1.93
2018-10-21T21:41:14.941Z,2.20
2018-10-21T21:43:43.710Z,2.20
2018-10-21T21:46:12.512Z,1.70
2018-10-21T21:48:41.144Z,1.60
2018-10-21T21:51:09.850Z,1.90
2018-10-21T21:53:38.522Z,2.03
2018-10-21T21:56:07.228Z,1.83
2018-10-21T21:58:35.989Z,1.90
2018-10-21T22:01:04.725Z,2.17
2018-10-21T22:03:33.434Z,1.43
2018-10-21T22:06:02.207Z,1.43
2018-10-21T22:08:31.420Z,1.63
2018-10-21T22:11:00.140Z,1.40
2018-10-21T22:13:28.906Z,1.67
2018-10-21T22:15:57.694Z,1.90
2018-10-21T22:18:26.361Z,1.80
2018-10-21T22:20:55.054Z,1.97
2018-10-21T22:23:23.851Z,1.67
2018-10-21T22:25:52.600Z,1.40
2018-10-21T22:28:21.400Z,1.73
2018-10-21T22:30:50.115Z,2.00
2018-10-21T22:33:18.924Z,1.67
2018-10-21T22:35:47.608Z,1.67
2018-10-21T22:38:16.334Z,1.67
2018-10-21T22:40:45.043Z,1.87
2018-10-21T22:43:13.744Z,1.93
2018-10-21T22:45:42.429Z,1.20
2018-10-21T22:48:11.275Z,1.83
2018-10-21T22:50:39.945Z,1.97
2018-10-21T22:53:08.619Z,1.47
2018-10-21T22:55:37.290Z,1.30
2018-10-21T22:58:06.233Z,1.20
2018-10-21T23:00:35.068Z,1.50
2018-10-21T23:03:03.852Z,1.33
2018-10-21T23:05:32.587Z,1.33
2018-10-21T23:08:01.620Z,1.40
2018-10-21T23:10:30.308Z,1.50
2018-10-21T23:12:59.042Z,1.53
2018-10-21T23:15:27.756Z,1.37
2018-10-21T23:17:56.451Z,1.30
2018-10-21T23:20:25.184Z,1.50
2018-10-21T23:22:53.872Z,1.43
2018-10-21T23:25:22.580Z,1.30
2018-10-21T23:27:51.333Z,1.10
2018-10-21T23:30:20.084Z,1.50
2018-10-21T23:32:49.276Z,1.90
2018-10-21T23:35:17.952Z,1.33
2018-10-21T23:37:46.625Z,1.43
2018-10-21T23:40:15.383Z,1.77
2018-10-21T23:42:44.027Z,1.60
2018-10-21T23:45:12.708Z,1.23
2018-10-21T23:47:41.398Z,1.67
2018-10-21T23:50:10.182Z,1.40
2018-10-21T23:52:38.903Z,1.00
2018-10-21T23:55:07.659Z,1.70
2018-10-21T23:57:36.361Z,1.43
